createdAt,value
2018-08-13T00:01:22.301Z,1.90
2018-08-13T00:03:50.151Z,2.00
2018-08-13T00:06:17.929Z,1.93
2018-08-13T00:08:45.703Z,1.80
2018-08-13T00:11:13.579Z,1.90
2018-08-13T00:13:41.377Z,1.83
2018-08-13T00:16:09.251Z,1.90
2018-08-13T00:18:37.082Z,1.90
2018-08-13T00:23:39.401Z,1.77
2018-08-13T00:26:07.163Z,1.67
2018-08-13T00:28:35.045Z,1.67
2018-08-13T00:31:02.883Z,2.17
2018-08-13T00:33:30.634Z,1.80
2018-08-13T00:35:58.383Z,2.20
2018-08-13T00:38:26.145Z,1.93
2018-08-13T00:40:54.932Z,2.30
2018-08-13T00:43:24.104Z,2.30
2018-08-13T00:45:51.958Z,2.30
2018-08-13T00:48:19.896Z,2.30
2018-08-13T00:50:47.708Z,2.40
2018-08-13T00:53:15.508Z,2.80
2018-08-13T00:55:43.250Z,2.90
2018-08-13T00:58:10.984Z,2.73
2018-08-13T01:00:39.443Z,2.70
2018-08-13T01:03:08.314Z,2.50
2018-08-13T01:05:36.156Z,2.73
2018-08-13T01:08:04.017Z,2.47
2018-08-13T01:10:31.867Z,2.83
2018-08-13T01:12:59.697Z,2.90
2018-08-13T01:15:27.515Z,2.40
2018-08-13T01:17:55.307Z,3.10
2018-08-13T01:20:23.491Z,2.77
2018-08-13T01:22:51.307Z,3.27
2018-08-13T01:25:20.173Z,3.00
2018-08-13T01:27:48.056Z,3.03
2018-08-13T01:30:17.409Z,3.20
2018-08-13T01:32:45.229Z,3.40
2018-08-13T01:35:13.059Z,3.17
2018-08-13T01:37:40.903Z,3.40
2018-08-13T01:40:09.937Z,4.10
2018-08-13T01:42:37.869Z,4.10
2018-08-13T01:45:06.945Z,3.73
2018-08-13T01:47:34.735Z,3.73
2018-08-13T01:50:03.182Z,3.70
2018-08-13T01:52:30.984Z,4.10
2018-08-13T01:54:58.831Z,4.40
2018-08-13T01:57:26.637Z,4.13
2018-08-13T01:59:54.431Z,4.17
2018-08-13T02:02:22.210Z,3.90
2018-08-13T02:04:49.995Z,4.13
2018-08-13T02:07:17.858Z,4.40
2018-08-13T02:09:45.746Z,4.43
2018-08-13T02:12:13.543Z,4.30
2018-08-13T02:14:41.385Z,4.40
2018-08-13T02:17:09.255Z,4.40
2018-08-13T02:19:37.070Z,4.80
2018-08-13T02:22:04.935Z,4.73
2018-08-13T02:24:32.671Z,4.53
2018-08-13T02:27:00.443Z,4.87
2018-08-13T02:29:28.318Z,4.90
2018-08-13T02:31:56.646Z,5.50
2018-08-13T02:34:24.546Z,5.50
2018-08-13T02:36:52.441Z,6.43
2018-08-13T02:39:20.314Z,6.13
2018-08-13T02:41:48.090Z,6.20
2018-08-13T02:44:15.825Z,6.77
2018-08-13T02:46:43.559Z,7.17
2018-08-13T02:49:11.476Z,8.10
2018-08-13T02:51:39.343Z,7.63
2018-08-13T02:54:07.538Z,7.70
2018-08-13T02:56:35.509Z,7.00
2018-08-13T02:59:03.346Z,7.43
2018-08-13T03:01:31.162Z,7.50
2018-08-13T03:03:59.297Z,6.90
2018-08-13T03:06:27.159Z,7.40
2018-08-13T03:08:54.927Z,6.90
2018-08-13T03:11:22.788Z,7.40
2018-08-13T03:13:51.295Z,6.43
2018-08-13T03:16:19.703Z,6.67
2018-08-13T03:18:47.559Z,6.70
2018-08-13T03:21:15.391Z,6.80
2018-08-13T03:23:43.147Z,6.70
2018-08-13T03:26:10.968Z,6.50
2018-08-13T03:28:38.841Z,6.40
2018-08-13T03:31:06.708Z,6.70
2018-08-13T03:33:34.502Z,6.27
2018-08-13T03:36:02.363Z,6.60
2018-08-13T03:38:30.164Z,6.30
2018-08-13T03:40:57.982Z,7.17
2018-08-13T03:43:25.705Z,6.73
2018-08-13T03:45:53.488Z,6.73
2018-08-13T03:48:21.274Z,6.90
2018-08-13T03:50:49.100Z,6.70
2018-08-13T03:53:16.904Z,6.53
2018-08-13T03:55:44.628Z,7.00
2018-08-13T03:58:12.392Z,6.37
2018-08-13T04:00:40.170Z,6.20
2018-08-13T04:03:07.993Z,6.03
2018-08-13T04:05:35.852Z,6.30
2018-08-13T04:08:04.002Z,5.80
2018-08-13T04:10:31.756Z,6.00
2018-08-13T04:12:59.626Z,5.57
2018-08-13T04:15:27.491Z,6.07
2018-08-13T04:17:55.283Z,5.53
2018-08-13T04:20:23.139Z,5.80
2018-08-13T04:22:50.940Z,5.93
2018-08-13T04:25:18.772Z,5.47
2018-08-13T04:27:46.576Z,6.20
2018-08-13T04:30:16.710Z,5.67
2018-08-13T04:32:45.504Z,5.00
2018-08-13T04:35:13.375Z,5.70
2018-08-13T04:37:42.050Z,6.17
2018-08-13T04:40:12.126Z,6.00
2018-08-13T04:42:40.664Z,5.83
2018-08-13T04:45:09.198Z,5.63
2018-08-13T04:47:37.037Z,6.73
2018-08-13T04:50:05.907Z,6.00
2018-08-13T04:52:33.741Z,6.20
2018-08-13T04:55:01.517Z,5.43
2018-08-13T04:57:29.353Z,5.87
2018-08-13T04:59:57.134Z,5.40
2018-08-13T05:02:24.909Z,5.90
2018-08-13T05:04:52.677Z,5.87
2018-08-13T05:07:20.498Z,5.87
2018-08-13T05:09:48.229Z,5.73
2018-08-13T05:12:15.941Z,5.83
2018-08-13T05:14:43.739Z,6.17
2018-08-13T05:17:11.519Z,6.03
2018-08-13T05:19:39.287Z,6.17
2018-08-13T05:22:07.103Z,5.90
2018-08-13T05:24:34.875Z,5.90
2018-08-13T05:27:02.717Z,6.03
2018-08-13T05:29:30.495Z,5.87
2018-08-13T05:31:58.332Z,6.60
2018-08-13T05:34:26.097Z,5.93
2018-08-13T05:36:53.825Z,6.20
2018-08-13T05:39:21.583Z,5.80
2018-08-13T05:41:49.357Z,6.00
2018-08-13T05:44:17.124Z,5.67
2018-08-13T05:46:44.861Z,5.40
2018-08-13T05:49:12.649Z,5.77
2018-08-13T05:51:40.415Z,5.27
2018-08-13T05:54:08.254Z,5.60
2018-08-13T05:56:36.031Z,5.30
2018-08-13T05:59:03.816Z,5.80
2018-08-13T06:01:31.595Z,5.83
2018-08-13T06:03:59.423Z,5.97
2018-08-13T06:06:27.321Z,5.80
2018-08-13T06:08:55.081Z,5.53
2018-08-13T06:11:22.947Z,5.67
2018-08-13T06:13:50.567Z,5.43
2018-08-13T06:16:18.285Z,5.77
2018-08-13T06:18:46.071Z,5.50
2018-08-13T06:23:48.292Z,5.60
2018-08-13T06:26:16.131Z,5.43
2018-08-13T06:28:43.891Z,5.73
2018-08-13T06:31:11.656Z,5.50
2018-08-13T06:33:39.383Z,5.30
2018-08-13T06:36:07.244Z,5.43
2018-08-13T06:38:34.973Z,5.23
2018-08-13T06:41:02.821Z,5.53
2018-08-13T06:43:30.511Z,5.20
2018-08-13T06:45:58.305Z,5.30
2018-08-13T06:48:26.061Z,5.30
2018-08-13T06:50:53.794Z,5.00
2018-08-13T06:53:21.549Z,5.87
2018-08-13T06:55:49.305Z,5.27
2018-08-13T06:58:17.032Z,5.30
2018-08-13T07:00:44.829Z,5.40
2018-08-13T07:03:12.484Z,5.67
2018-08-13T07:05:40.191Z,5.67
2018-08-13T07:08:07.901Z,5.50
2018-08-13T07:10:35.700Z,5.00
2018-08-13T07:13:03.539Z,5.27
2018-08-13T07:15:31.297Z,5.30
2018-08-13T07:17:59.097Z,5.17
2018-08-13T07:20:26.886Z,5.37
2018-08-13T07:22:54.632Z,5.43
2018-08-13T07:25:22.363Z,5.80
2018-08-13T07:27:50.124Z,5.20
2018-08-13T07:30:18.003Z,5.27
2018-08-13T07:32:45.778Z,5.20
2018-08-13T07:35:13.581Z,5.07
2018-08-13T07:37:41.507Z,4.70
2018-08-13T07:40:15.337Z,5.13
2018-08-13T07:42:43.291Z,5.80
2018-08-13T07:45:11.105Z,5.70
2018-08-13T07:47:38.897Z,5.73
2018-08-13T07:50:08.009Z,5.63
2018-08-13T07:52:35.835Z,5.60
2018-08-13T07:55:03.928Z,4.97
2018-08-13T07:57:31.626Z,5.23
2018-08-13T07:59:59.445Z,4.10
2018-08-13T08:02:27.347Z,3.80
2018-08-13T08:04:55.116Z,3.57
2018-08-13T08:07:22.870Z,3.60
2018-08-13T08:09:50.589Z,3.97
2018-08-13T08:12:18.481Z,3.47
2018-08-13T08:14:46.446Z,2.90
2018-08-13T08:17:14.147Z,3.27
2018-08-13T08:19:41.870Z,3.00
2018-08-13T08:22:09.633Z,2.97
2018-08-13T08:24:37.401Z,2.50
2018-08-13T08:27:06.007Z,2.80
2018-08-13T08:29:33.857Z,2.50
2018-08-13T08:32:01.676Z,2.43
2018-08-13T08:34:29.405Z,2.30
2018-08-13T08:36:57.154Z,2.20
2018-08-13T08:39:24.894Z,2.30
2018-08-13T08:41:52.669Z,2.27
2018-08-13T08:44:20.463Z,2.53
2018-08-13T08:46:48.239Z,2.40
2018-08-13T08:49:16.014Z,2.30
2018-08-13T08:51:43.765Z,2.13
2018-08-13T08:54:11.533Z,2.33
2018-08-13T08:56:39.331Z,2.60
2018-08-13T08:59:08.427Z,2.23
2018-08-13T09:01:36.277Z,2.37
2018-08-13T09:04:04.261Z,2.20
2018-08-13T09:06:31.963Z,2.57
2018-08-13T09:08:59.690Z,2.50
2018-08-13T09:11:27.491Z,2.37
2018-08-13T09:13:55.226Z,2.37
2018-08-13T09:16:22.980Z,2.10
2018-08-13T09:19:02.066Z,2.37
2018-08-13T09:21:33.169Z,2.13
2018-08-13T09:24:13.259Z,2.20
2018-08-13T09:26:52.309Z,2.40
2018-08-13T09:29:31.867Z,2.47
2018-08-13T09:32:29.162Z,2.50
2018-08-13T09:35:15.099Z,2.73
2018-08-13T09:37:42.839Z,2.20
2018-08-13T09:40:10.560Z,2.40
2018-08-13T09:42:38.346Z,2.33
2018-08-13T09:45:07.161Z,2.40
2018-08-13T09:47:35.283Z,2.37
2018-08-13T09:50:04.249Z,2.60
2018-08-13T09:52:32.007Z,2.70
2018-08-13T09:54:59.765Z,2.40
2018-08-13T09:57:27.512Z,2.73
2018-08-13T09:59:55.249Z,2.90
2018-08-13T10:02:22.995Z,2.67
2018-08-13T10:04:50.734Z,2.63
2018-08-13T10:07:18.541Z,1.63
2018-08-13T10:09:46.315Z,1.50
2018-08-13T10:12:14.019Z,1.80
2018-08-13T10:14:41.783Z,2.20
2018-08-13T10:17:09.519Z,2.03
2018-08-13T10:19:37.278Z,2.10
2018-08-13T10:22:05.071Z,2.00
2018-08-13T10:24:32.815Z,2.23
2018-08-13T10:27:00.531Z,2.30
2018-08-13T10:29:28.268Z,2.40
2018-08-13T10:31:55.952Z,2.77
2018-08-13T10:34:23.677Z,2.60
2018-08-13T10:36:51.405Z,2.63
2018-08-13T10:39:19.185Z,3.00
2018-08-13T10:41:46.896Z,2.80
2018-08-13T10:44:14.639Z,3.00
2018-08-13T10:46:42.345Z,3.17
2018-08-13T10:49:10.082Z,2.93
2018-08-13T10:51:37.832Z,3.10
2018-08-13T10:54:05.648Z,3.00
2018-08-13T10:56:33.504Z,3.03
2018-08-13T10:59:01.202Z,3.13
2018-08-13T11:01:29.005Z,2.57
2018-08-13T11:03:56.851Z,2.67
2018-08-13T11:06:24.582Z,2.70
2018-08-13T11:08:52.343Z,2.73
2018-08-13T11:11:20.903Z,3.00
2018-08-13T11:13:48.981Z,2.80
2018-08-13T11:16:16.762Z,3.00
2018-08-13T11:18:44.567Z,2.80
2018-08-13T11:21:12.287Z,3.07
2018-08-13T11:23:40.051Z,2.87
2018-08-13T11:26:07.886Z,3.00
2018-08-13T11:28:35.781Z,2.70
2018-08-13T11:31:03.589Z,2.80
2018-08-13T11:33:31.389Z,2.43
2018-08-13T11:35:59.127Z,2.27
2018-08-13T11:38:26.836Z,3.00
2018-08-13T11:40:54.599Z,3.37
2018-08-13T11:43:23.083Z,2.87
2018-08-13T11:45:50.830Z,3.00
2018-08-13T11:48:18.564Z,2.80
2018-08-13T11:50:46.337Z,2.87
2018-08-13T11:53:14.161Z,2.20
2018-08-13T11:55:41.909Z,2.40
2018-08-13T11:58:09.631Z,2.20
2018-08-13T12:00:37.411Z,2.50
2018-08-13T12:03:05.647Z,2.30
2018-08-13T12:05:33.377Z,2.33
2018-08-13T12:08:01.132Z,2.20
2018-08-13T12:10:29.267Z,2.30
2018-08-13T12:12:56.999Z,2.33
2018-08-13T12:15:24.739Z,1.93
2018-08-13T12:17:52.479Z,2.10
2018-08-13T12:20:21.257Z,2.40
2018-08-13T12:22:49.179Z,2.10
2018-08-13T12:25:18.737Z,2.10
2018-08-13T12:27:46.485Z,2.60
2018-08-13T12:30:14.330Z,2.53
2018-08-13T12:32:42.127Z,2.53
2018-08-13T12:35:09.827Z,3.07
2018-08-13T12:37:37.534Z,2.53
2018-08-13T12:40:07.510Z,2.60
2018-08-13T12:42:35.329Z,2.90
2018-08-13T12:45:03.158Z,3.10
2018-08-13T12:47:30.960Z,3.20
2018-08-13T12:49:58.697Z,3.07
2018-08-13T12:52:26.401Z,3.30
2018-08-13T12:54:54.145Z,3.10
2018-08-13T12:57:21.901Z,3.27
2018-08-13T12:59:49.644Z,3.70
2018-08-13T13:02:17.430Z,3.77
2018-08-13T13:04:45.128Z,3.90
2018-08-13T13:07:12.901Z,3.83
2018-08-13T13:09:40.645Z,3.77
2018-08-13T13:12:08.505Z,3.80
2018-08-13T13:14:36.352Z,3.27
2018-08-13T13:17:04.077Z,3.63
2018-08-13T13:19:31.821Z,3.80
2018-08-13T13:21:59.572Z,3.60
2018-08-13T13:24:27.384Z,3.10
2018-08-13T13:26:55.213Z,3.27
2018-08-13T13:29:23.089Z,3.40
2018-08-13T13:31:50.997Z,3.43
2018-08-13T13:34:18.873Z,3.40
2018-08-13T13:36:46.635Z,3.90
2018-08-13T13:39:14.383Z,3.13
2018-08-13T13:41:42.129Z,3.20
2018-08-13T13:44:09.921Z,3.67
2018-08-13T13:46:37.636Z,3.33
2018-08-13T13:49:05.434Z,2.80
2018-08-13T13:51:33.204Z,3.10
2018-08-13T13:54:00.913Z,2.87
2018-08-13T13:56:28.661Z,2.33
2018-08-13T13:58:56.398Z,2.03
2018-08-13T14:01:24.139Z,1.80
2018-08-13T14:03:51.989Z,2.17
2018-08-13T14:06:19.779Z,2.33
2018-08-13T14:08:47.560Z,3.10
2018-08-13T14:11:15.306Z,3.20
2018-08-13T14:13:43.141Z,3.40
2018-08-13T14:16:10.977Z,3.10
2018-08-13T14:18:38.829Z,3.10
2018-08-13T14:21:06.677Z,2.80
2018-08-13T14:23:34.399Z,2.80
2018-08-13T14:26:02.119Z,2.93
2018-08-13T14:28:29.874Z,2.57
2018-08-13T14:30:57.597Z,2.10
2018-08-13T14:33:25.378Z,2.30
2018-08-13T14:35:53.207Z,1.77
2018-08-13T14:38:20.945Z,1.47
2018-08-13T14:40:48.712Z,1.40
2018-08-13T14:43:16.529Z,1.10
2018-08-13T14:45:45.454Z,1.20
2018-08-13T14:48:13.210Z,1.30
2018-08-13T14:50:41.019Z,1.03
2018-08-13T14:53:08.788Z,1.20
2018-08-13T14:55:36.573Z,1.10
2018-08-13T14:58:07.916Z,1.30
2018-08-13T15:00:37.150Z,1.20
2018-08-13T15:03:09.489Z,1.20
2018-08-13T15:05:37.529Z,1.23
2018-08-13T15:08:05.525Z,1.00
2018-08-13T15:10:33.479Z,1.40
2018-08-13T15:13:01.327Z,1.30
2018-08-13T15:15:29.194Z,1.40
2018-08-13T15:17:56.952Z,1.30
2018-08-13T15:20:26.769Z,1.10
2018-08-13T15:22:54.795Z,0.90
2018-08-13T15:25:22.659Z,0.93
2018-08-13T15:27:50.591Z,1.17
2018-08-13T15:30:19.204Z,1.30
2018-08-13T15:32:47.912Z,1.30
2018-08-13T15:35:15.705Z,1.90
2018-08-13T15:37:44.639Z,1.70
2018-08-13T15:40:12.587Z,1.77
2018-08-13T15:42:41.215Z,1.63
2018-08-13T15:45:10.972Z,1.50
2018-08-13T15:47:39.229Z,2.13
2018-08-13T15:50:07.493Z,1.80
2018-08-13T15:52:35.255Z,1.83
2018-08-13T15:55:03.420Z,1.60
2018-08-13T15:57:31.140Z,2.10
2018-08-13T15:59:58.917Z,2.17
2018-08-13T16:02:26.785Z,2.30
2018-08-13T16:04:54.577Z,2.30
2018-08-13T16:07:22.360Z,2.10
2018-08-13T16:09:50.120Z,1.70
2018-08-13T16:12:17.874Z,1.60
2018-08-13T16:14:45.635Z,1.30
2018-08-13T16:17:13.448Z,1.43
2018-08-13T16:19:41.271Z,1.30
2018-08-13T16:22:15.724Z,1.13
2018-08-13T16:24:43.499Z,1.20
2018-08-13T16:27:11.261Z,1.37
2018-08-13T16:29:39.043Z,1.27
2018-08-13T16:32:07.051Z,1.30
2018-08-13T16:34:34.854Z,1.13
2018-08-13T16:37:02.677Z,1.00
2018-08-13T16:39:30.424Z,1.23
2018-08-13T16:41:58.406Z,1.07
2018-08-13T16:44:26.285Z,1.27
2018-08-13T16:46:54.984Z,1.30
2018-08-13T16:49:22.721Z,1.20
2018-08-13T16:51:50.493Z,1.20
2018-08-13T16:54:18.390Z,1.20
2018-08-13T16:56:46.368Z,1.10
2018-08-13T16:59:14.566Z,1.07
2018-08-13T17:01:42.492Z,1.10
2018-08-13T17:04:10.242Z,1.10
2018-08-13T17:06:38.152Z,1.20
2018-08-13T17:09:08.035Z,1.30
2018-08-13T17:11:36.290Z,1.10
2018-08-13T17:14:06.991Z,1.27
2018-08-13T17:16:35.364Z,1.57
2018-08-13T17:19:03.167Z,1.50
2018-08-13T17:21:31.633Z,1.33
2018-08-13T17:23:59.403Z,1.40
2018-08-13T17:26:27.170Z,1.40
2018-08-13T17:28:54.961Z,1.40
2018-08-13T17:31:22.896Z,1.40
2018-08-13T17:33:51.311Z,1.37
2018-08-13T17:36:19.098Z,1.50
2018-08-13T17:38:47.005Z,1.40
2018-08-13T17:41:14.817Z,1.27
2018-08-13T17:43:42.641Z,1.20
2018-08-13T17:46:10.572Z,1.30
2018-08-13T17:48:38.469Z,1.40
2018-08-13T17:51:07.129Z,1.77
2018-08-13T17:53:35.091Z,1.57
2018-08-13T17:56:03.526Z,1.60
2018-08-13T17:58:31.323Z,1.80
2018-08-13T18:00:59.341Z,1.90
2018-08-13T18:03:27.097Z,1.67
2018-08-13T18:05:54.897Z,2.00
2018-08-13T18:08:22.693Z,1.80
2018-08-13T18:10:50.484Z,2.47
2018-08-13T18:13:18.280Z,2.33
2018-08-13T18:15:46.174Z,2.10
2018-08-13T18:18:14.251Z,2.10
2018-08-13T18:20:42.308Z,2.00
2018-08-13T18:23:10.067Z,2.00
2018-08-13T18:25:38.546Z,2.00
2018-08-13T18:28:06.304Z,2.30
2018-08-13T18:30:34.134Z,2.10
2018-08-13T18:33:01.920Z,2.13
2018-08-13T18:35:29.689Z,2.20
2018-08-13T18:37:57.641Z,2.00
2018-08-13T18:40:30.532Z,2.27
2018-08-13T18:42:58.378Z,2.50
2018-08-13T18:45:26.513Z,2.57
2018-08-13T18:47:54.339Z,2.70
2018-08-13T18:50:22.625Z,2.93
2018-08-13T18:52:50.534Z,2.77
2018-08-13T18:55:20.773Z,3.37
2018-08-13T18:57:49.035Z,3.60
2018-08-13T19:00:18.453Z,3.83
2018-08-13T19:02:46.347Z,4.10
2018-08-13T19:05:15.970Z,3.60
2018-08-13T19:07:44.709Z,4.40
2018-08-13T19:10:13.543Z,4.03
2018-08-13T19:12:41.410Z,4.30
2018-08-13T19:15:11.451Z,4.20
2018-08-13T19:17:39.671Z,4.47
2018-08-13T19:20:09.471Z,4.13
2018-08-13T19:22:37.382Z,4.43
2018-08-13T19:25:06.901Z,4.60
2018-08-13T19:27:34.818Z,4.20
2018-08-13T19:30:02.821Z,4.70
2018-08-13T19:32:30.688Z,8.13
2018-08-13T19:34:58.579Z,7.20
2018-08-13T19:37:26.388Z,5.60
2018-08-13T19:39:54.273Z,4.90
2018-08-13T19:42:22.209Z,5.37
2018-08-13T19:44:50.080Z,5.27
2018-08-13T19:47:17.977Z,5.60
2018-08-13T19:49:45.885Z,4.90
2018-08-13T19:52:13.739Z,5.13
2018-08-13T19:54:41.599Z,4.87
2018-08-13T19:57:09.544Z,5.10
2018-08-13T19:59:37.455Z,5.00
2018-08-13T20:02:05.984Z,5.17
2018-08-13T20:04:33.853Z,4.77
2018-08-13T20:07:01.789Z,4.07
2018-08-13T20:09:29.594Z,3.53
2018-08-13T20:11:57.469Z,3.60
2018-08-13T20:14:25.852Z,3.07
2018-08-13T20:16:54.376Z,3.70
2018-08-13T20:19:22.289Z,3.43
2018-08-13T20:21:50.353Z,3.97
2018-08-13T20:24:18.254Z,3.70
2018-08-13T20:26:46.185Z,3.77
2018-08-13T20:29:14.056Z,4.07
2018-08-13T20:31:42.372Z,4.00
2018-08-13T20:34:10.285Z,3.80
2018-08-13T20:36:39.019Z,3.87
2018-08-13T20:39:10.859Z,4.20
2018-08-13T20:41:38.686Z,4.13
2018-08-13T20:44:07.018Z,4.20
2018-08-13T20:46:34.840Z,4.40
2018-08-13T20:49:02.717Z,3.93
2018-08-13T20:51:30.509Z,4.13
2018-08-13T20:53:58.343Z,4.50
2018-08-13T20:56:26.267Z,4.10
2018-08-13T20:58:54.154Z,4.70
2018-08-13T21:01:21.973Z,4.67
2018-08-13T21:03:49.779Z,4.47
2018-08-13T21:06:17.543Z,4.90
2018-08-13T21:08:45.425Z,4.90
2018-08-13T21:11:13.215Z,5.43
2018-08-13T21:13:41.058Z,5.57
2018-08-13T21:16:08.932Z,4.93
2018-08-13T21:18:36.763Z,5.63
2018-08-13T21:21:04.513Z,5.53
2018-08-13T21:23:32.267Z,6.40
2018-08-13T21:26:00.153Z,5.90
2018-08-13T21:28:27.914Z,6.07
2018-08-13T21:30:55.722Z,6.10
2018-08-13T21:33:23.527Z,6.33
2018-08-13T21:35:51.381Z,6.77
2018-08-13T21:38:19.249Z,6.40
2018-08-13T21:40:47.017Z,6.20
2018-08-13T21:43:14.890Z,6.33
2018-08-13T21:45:42.677Z,6.43
2018-08-13T21:48:10.469Z,6.30
2018-08-13T21:50:38.294Z,6.30
2018-08-13T21:53:06.441Z,6.80
2018-08-13T21:55:34.194Z,6.13
2018-08-13T21:58:01.985Z,6.30
2018-08-13T22:00:35.707Z,6.57
2018-08-13T22:03:03.973Z,6.53
2018-08-13T22:05:31.729Z,6.10
2018-08-13T22:07:59.571Z,6.63
2018-08-13T22:10:27.456Z,6.53
2018-08-13T22:12:55.278Z,5.77
2018-08-13T22:15:25.367Z,6.07
2018-08-13T22:17:54.256Z,6.00
2018-08-13T22:20:22.410Z,5.97
2018-08-13T22:22:50.257Z,6.47
2018-08-13T22:25:20.817Z,6.10
2018-08-13T22:27:48.609Z,5.90
2018-08-13T22:30:16.427Z,5.70
2018-08-13T22:32:44.167Z,5.97
2018-08-13T22:35:11.979Z,5.60
2018-08-13T22:37:40.863Z,6.13
2018-08-13T22:40:11.325Z,5.60
2018-08-13T22:42:39.137Z,5.70
2018-08-13T22:45:07.912Z,5.23
2018-08-13T22:47:36.145Z,5.30
2018-08-13T22:50:05.378Z,5.70
2018-08-13T22:52:33.505Z,6.17
2018-08-13T22:55:01.287Z,5.37
2018-08-13T22:57:29.465Z,5.83
2018-08-13T22:59:57.258Z,5.50
2018-08-13T23:02:25.080Z,5.63
2018-08-13T23:04:52.839Z,5.47
2018-08-13T23:07:20.627Z,5.83
2018-08-13T23:09:48.367Z,5.60
2018-08-13T23:12:16.164Z,5.10
2018-08-13T23:14:43.911Z,6.00
2018-08-13T23:17:11.693Z,5.30
2018-08-13T23:19:39.378Z,5.17
2018-08-13T23:22:07.166Z,5.53
2018-08-13T23:24:34.915Z,4.97
2018-08-13T23:27:02.683Z,5.00
2018-08-13T23:29:30.451Z,4.97
2018-08-13T23:31:58.173Z,4.73
2018-08-13T23:34:25.871Z,4.70
2018-08-13T23:36:53.585Z,4.67
2018-08-13T23:39:21.333Z,4.30
2018-08-13T23:41:49.028Z,4.80
2018-08-13T23:44:16.750Z,4.53
2018-08-13T23:46:44.513Z,4.80
2018-08-13T23:49:12.317Z,5.00
2018-08-13T23:51:40.015Z,4.80
2018-08-13T23:54:07.756Z,4.20
2018-08-13T23:56:35.469Z,4.60
2018-08-13T23:59:03.307Z,4.30
